createdAt,value
2019-01-06T00:00:14.542Z,3.60
2019-01-06T00:03:01.762Z,3.60
2019-01-06T00:06:05.392Z,4.10
2019-01-06T00:08:56.273Z,3.90
2019-01-06T00:11:53.656Z,3.80
2019-01-06T00:14:42.386Z,3.60
2019-01-06T00:17:29.608Z,3.40
2019-01-06T00:20:18.033Z,3.30
2019-01-06T00:23:21.661Z,3.20
2019-01-06T00:26:08.879Z,3.10
2019-01-06T00:29:11.636Z,3.20
2019-01-06T00:31:59.088Z,3.20
2019-01-06T00:34:47.536Z,3.20
2019-01-06T00:37:34.766Z,3.30
2019-01-06T00:40:26.562Z,3.40
2019-01-06T00:43:17.903Z,3.20
2019-01-06T00:46:05.022Z,3.10
2019-01-06T00:48:52.443Z,3.20
2019-01-06T00:51:50.004Z,3.00
2019-01-06T00:54:37.634Z,3.10
2019-01-06T00:57:24.734Z,3.10
2019-01-06T01:00:11.128Z,3.20
2019-01-06T01:02:58.680Z,3.10
2019-01-06T01:05:59.313Z,3.10
2019-01-06T01:08:54.727Z,3.00
2019-01-06T01:11:42.240Z,3.30
2019-01-06T01:14:29.472Z,3.00
2019-01-06T01:17:30.619Z,3.10
2019-01-06T01:20:18.352Z,3.10
2019-01-06T01:23:15.609Z,2.90
2019-01-06T01:26:24.331Z,2.90
2019-01-06T01:29:11.857Z,3.00
2019-01-06T01:31:59.195Z,2.80
2019-01-06T01:34:56.748Z,2.70
2019-01-06T01:37:55.416Z,2.50
2019-01-06T01:40:43.038Z,2.80
2019-01-06T01:43:40.633Z,2.50
2019-01-06T01:46:32.560Z,2.70
2019-01-06T01:49:33.194Z,3.20
2019-01-06T01:52:20.724Z,3.40
2019-01-06T01:55:18.284Z,3.30
2019-01-06T01:58:07.730Z,3.10
2019-01-06T02:01:02.350Z,3.10
2019-01-06T02:03:52.676Z,2.90
2019-01-06T02:06:37.910Z,2.60
2019-01-06T02:09:34.663Z,2.40
2019-01-06T02:12:22.281Z,2.60
2019-01-06T02:15:22.921Z,2.60
2019-01-06T02:18:10.345Z,2.70
2019-01-06T02:21:02.167Z,2.90
2019-01-06T02:23:49.185Z,3.20
2019-01-06T02:26:36.608Z,3.10
2019-01-06T02:29:26.779Z,2.90
2019-01-06T02:32:31.018Z,3.10
2019-01-06T02:35:19.875Z,2.90
2019-01-06T02:38:17.439Z,2.90
2019-01-06T02:41:18.276Z,2.90
2019-01-06T02:44:12.769Z,2.60
2019-01-06T02:47:16.372Z,2.70
2019-01-06T02:50:04.921Z,2.80
2019-01-06T02:52:52.142Z,2.60
2019-01-06T02:55:49.815Z,2.60
2019-01-06T02:58:56.378Z,2.60
2019-01-06T03:01:52.204Z,2.70
2019-01-06T03:04:43.416Z,2.40
2019-01-06T03:07:40.882Z,2.80
2019-01-06T03:10:28.401Z,2.70
2019-01-06T03:13:15.622Z,2.80
2019-01-06T03:16:16.363Z,2.70
2019-01-06T03:19:07.576Z,2.80
2019-01-06T03:21:54.182Z,3.20
2019-01-06T03:24:54.821Z,3.50
2019-01-06T03:27:52.383Z,3.30
2019-01-06T03:30:49.758Z,3.50
2019-01-06T03:33:44.234Z,3.50
2019-01-06T03:36:44.870Z,3.40
2019-01-06T03:39:36.156Z,3.50
2019-01-06T03:42:33.747Z,3.30
2019-01-06T03:45:24.961Z,3.20
2019-01-06T03:48:31.946Z,3.30
2019-01-06T03:51:38.826Z,3.30
2019-01-06T03:54:27.375Z,3.20
2019-01-06T03:57:14.494Z,3.20
2019-01-06T04:00:02.838Z,3.00
2019-01-06T04:02:50.468Z,3.00
2019-01-06T04:05:48.236Z,2.90
2019-01-06T04:08:51.922Z,2.90
2019-01-06T04:11:46.540Z,2.70
2019-01-06T04:14:37.752Z,2.50
2019-01-06T04:17:21.873Z,2.80
2019-01-06T04:20:10.345Z,3.00
2019-01-06T04:23:02.686Z,3.00
2019-01-06T04:26:06.596Z,2.70
2019-01-06T04:29:04.466Z,2.80
2019-01-06T04:31:51.892Z,3.10
2019-01-06T04:34:36.520Z,3.10
2019-01-06T04:37:30.842Z,3.00
2019-01-06T04:40:31.675Z,3.00
2019-01-06T04:43:22.990Z,3.20
2019-01-06T04:46:10.314Z,3.20
2019-01-06T04:48:59.454Z,3.00
2019-01-06T04:51:59.678Z,2.70
2019-01-06T04:54:48.153Z,3.00
2019-01-06T04:57:35.703Z,3.00
2019-01-06T05:00:24.435Z,2.90
2019-01-06T05:03:11.556Z,2.80
2019-01-06T05:05:58.673Z,3.10
2019-01-06T05:08:46.198Z,3.00
2019-01-06T05:11:40.587Z,3.00
2019-01-06T05:14:27.908Z,3.00
2019-01-06T05:17:14.892Z,2.70
2019-01-06T05:20:02.251Z,2.80
2019-01-06T05:22:49.587Z,2.80
2019-01-06T05:25:42.220Z,2.60
2019-01-06T05:28:42.029Z,2.40
2019-01-06T05:31:30.581Z,2.40
2019-01-06T05:34:31.429Z,2.70
2019-01-06T05:37:21.822Z,2.80
2019-01-06T05:40:09.549Z,2.80
2019-01-06T05:42:57.073Z,2.50
2019-01-06T05:45:54.949Z,2.30
2019-01-06T05:48:26.597Z,2.30
2019-01-06T05:51:13.817Z,2.30
2019-01-06T05:54:14.562Z,2.50
2019-01-06T05:57:11.067Z,2.40
2019-01-06T06:00:12.013Z,2.50
2019-01-06T06:03:00.487Z,2.50
2019-01-06T06:05:49.145Z,2.80
2019-01-06T06:08:37.592Z,2.60
2019-01-06T06:11:39.661Z,2.70
2019-01-06T06:14:46.339Z,3.00
2019-01-06T06:17:33.504Z,2.70
2019-01-06T06:20:20.882Z,2.80
2019-01-06T06:23:25.099Z,2.60
2019-01-06T06:26:22.764Z,2.70
2019-01-06T06:29:14.070Z,3.00
2019-01-06T06:31:59.447Z,3.40
2019-01-06T06:34:46.565Z,3.40
2019-01-06T06:37:32.157Z,3.40
2019-01-06T06:40:14.861Z,3.30
2019-01-06T06:43:18.567Z,3.30
2019-01-06T06:46:22.170Z,3.10
2019-01-06T06:49:19.732Z,3.30
2019-01-06T06:52:11.152Z,3.20
2019-01-06T06:54:59.194Z,3.00
2019-01-06T06:58:24.606Z,3.10
2019-01-06T07:01:54.936Z,3.10
2019-01-06T07:04:42.259Z,3.00
2019-01-06T07:07:43.098Z,2.90
2019-01-06T07:10:37.793Z,2.80
2019-01-06T07:13:38.429Z,2.50
2019-01-06T07:17:02.925Z,2.50
2019-01-06T07:20:05.079Z,2.40
2019-01-06T07:22:52.315Z,2.40
2019-01-06T07:25:39.735Z,2.40
2019-01-06T07:28:27.367Z,2.80
2019-01-06T07:31:24.110Z,3.10
2019-01-06T07:34:12.474Z,3.10
2019-01-06T07:37:09.281Z,3.40
2019-01-06T07:40:13.218Z,3.10
2019-01-06T07:43:00.645Z,3.20
2019-01-06T07:45:50.226Z,3.10
2019-01-06T07:53:56.039Z,3.70
2019-01-06T07:56:47.563Z,3.40
2019-01-06T07:59:44.535Z,3.30
2019-01-06T08:02:28.776Z,3.20
2019-01-06T08:05:23.065Z,3.10
2019-01-06T08:08:14.585Z,3.30
2019-01-06T08:11:05.805Z,3.60
2019-01-06T08:14:07.870Z,3.40
2019-01-06T08:17:02.563Z,3.10
2019-01-06T08:19:53.984Z,3.10
2019-01-06T08:22:45.196Z,3.00
2019-01-06T08:25:39.587Z,3.10
2019-01-06T08:28:33.976Z,3.10
2019-01-06T08:31:21.504Z,2.90
2019-01-06T08:34:10.156Z,3.20
2019-01-06T08:37:06.695Z,3.30
2019-01-06T08:39:52.883Z,3.70
2019-01-06T08:42:53.517Z,3.90
2019-01-06T08:45:40.943Z,3.80
2019-01-06T08:48:28.470Z,3.90
2019-01-06T08:51:35.042Z,3.90
2019-01-06T08:54:38.749Z,3.70
2019-01-06T08:57:27.300Z,3.80
2019-01-06T09:00:14.419Z,4.00
2019-01-06T09:03:21.196Z,4.00
2019-01-06T09:06:09.644Z,3.90
2019-01-06T09:08:53.998Z,4.10
2019-01-06T09:11:39.682Z,3.80
2019-01-06T09:14:30.896Z,3.60
2019-01-06T09:17:22.418Z,3.70
2019-01-06T09:20:16.701Z,3.70
2019-01-06T09:23:04.023Z,3.60
2019-01-06T09:25:55.342Z,3.90
2019-01-06T09:29:01.504Z,4.00
2019-01-06T09:31:50.875Z,4.20
2019-01-06T09:34:31.236Z,4.40
2019-01-06T09:37:38.115Z,4.60
2019-01-06T09:40:28.201Z,4.50
2019-01-06T09:43:20.107Z,4.30
2019-01-06T09:46:15.034Z,4.20
2019-01-06T09:49:02.147Z,4.00
2019-01-06T09:51:49.675Z,4.50
2019-01-06T09:54:35.463Z,4.80
2019-01-06T09:57:23.295Z,5.00
2019-01-06T10:00:21.065Z,4.80
2019-01-06T10:03:17.297Z,4.80
2019-01-06T10:06:08.816Z,4.60
2019-01-06T10:08:56.036Z,4.50
2019-01-06T10:11:47.557Z,4.50
2019-01-06T10:14:51.268Z,4.40
2019-01-06T10:17:38.770Z,4.10
2019-01-06T10:20:21.083Z,4.10
2019-01-06T10:23:15.481Z,4.50
2019-01-06T10:26:02.598Z,4.70
2019-01-06T10:28:49.924Z,4.50
2019-01-06T10:31:37.346Z,4.70
2019-01-06T10:34:34.908Z,4.70
2019-01-06T10:37:22.129Z,4.80
2019-01-06T10:40:13.650Z,4.90
2019-01-06T10:43:00.357Z,4.80
2019-01-06T10:45:51.881Z,4.80
2019-01-06T10:48:46.164Z,4.70
2019-01-06T10:51:37.691Z,4.80
2019-01-06T10:54:31.871Z,5.00
2019-01-06T10:57:23.288Z,5.50
2019-01-06T11:00:27.094Z,5.90
2019-01-06T11:03:14.109Z,6.10
2019-01-06T11:06:14.641Z,5.40
2019-01-06T11:09:10.375Z,5.20
2019-01-06T11:12:05.057Z,5.70
2019-01-06T11:15:02.831Z,6.40
2019-01-06T11:17:51.274Z,6.00
2019-01-06T11:20:52.421Z,5.70
2019-01-06T11:23:40.978Z,5.40
2019-01-06T11:26:44.575Z,5.20
2019-01-06T11:29:35.615Z,5.00
2019-01-06T11:32:33.047Z,4.90
2019-01-06T11:35:24.462Z,4.70
2019-01-06T11:38:11.685Z,4.70
2019-01-06T11:41:07.760Z,4.70
2019-01-06T11:43:59.560Z,4.60
2019-01-06T11:46:48.087Z,4.70
2019-01-06T11:49:55.070Z,4.70
2019-01-06T11:52:42.160Z,4.70
2019-01-06T11:55:35.966Z,4.70
2019-01-06T11:58:23.286Z,4.60
2019-01-06T12:01:11.019Z,4.50
2019-01-06T12:04:18.105Z,4.50
2019-01-06T12:07:18.537Z,4.50
2019-01-06T12:10:12.925Z,4.50
2019-01-06T12:13:00.148Z,4.70
2019-01-06T12:16:03.856Z,4.90
2019-01-06T12:19:02.644Z,4.80
2019-01-06T12:21:53.242Z,4.70
2019-01-06T12:24:41.793Z,4.70
2019-01-06T12:27:28.935Z,4.60
2019-01-06T12:30:16.032Z,4.60
2019-01-06T12:33:10.422Z,4.70
2019-01-06T12:35:57.645Z,4.70
2019-01-06T12:39:01.660Z,4.60
2019-01-06T12:41:56.661Z,4.60
2019-01-06T12:44:46.315Z,4.70
2019-01-06T12:47:35.195Z,4.70
2019-01-06T12:50:26.150Z,4.60
2019-01-06T12:53:21.198Z,4.40
2019-01-06T12:56:08.625Z,4.40
2019-01-06T12:59:15.198Z,4.40
2019-01-06T13:02:09.586Z,4.40
2019-01-06T13:05:01.416Z,4.40
2019-01-06T13:08:09.036Z,4.40
2019-01-06T13:10:56.536Z,4.30
2019-01-06T13:13:44.063Z,4.30
2019-01-06T13:16:39.007Z,4.20
2019-01-06T13:19:29.629Z,4.10
2019-01-06T13:22:37.201Z,4.10
2019-01-06T13:25:25.200Z,4.10
2019-01-06T13:28:22.761Z,4.00
2019-01-06T13:31:10.390Z,4.10
2019-01-06T13:34:06.622Z,4.20
2019-01-06T13:37:03.980Z,4.30
2019-01-06T13:39:58.369Z,4.40
2019-01-06T13:42:47.125Z,4.30
2019-01-06T13:45:51.033Z,4.30
2019-01-06T13:48:39.484Z,4.30
2019-01-06T13:51:37.250Z,4.20
2019-01-06T13:54:30.189Z,4.10
2019-01-06T13:57:23.056Z,4.00
2019-01-06T14:00:14.151Z,4.00
2019-01-06T14:03:01.977Z,4.00
2019-01-06T14:05:49.427Z,3.90
2019-01-06T14:08:36.647Z,3.90
2019-01-06T14:11:27.143Z,3.90
2019-01-06T14:14:21.634Z,3.80
2019-01-06T14:17:13.051Z,3.90
2019-01-06T14:20:00.276Z,3.90
2019-01-06T14:22:54.865Z,3.90
2019-01-06T14:25:49.561Z,3.90
2019-01-06T14:28:37.088Z,3.80
2019-01-06T14:31:24.719Z,3.80
2019-01-06T14:34:11.936Z,3.70
2019-01-06T14:37:00.490Z,3.60
2019-01-06T14:39:47.707Z,3.50
2019-01-06T14:42:48.546Z,3.50
2019-01-06T14:45:46.322Z,3.50
2019-01-06T14:48:33.534Z,3.60
2019-01-06T14:51:30.897Z,3.50
2019-01-06T14:54:22.419Z,3.50
2019-01-06T14:57:07.293Z,3.40
2019-01-06T15:00:06.581Z,3.40
2019-01-06T15:02:54.005Z,3.40
2019-01-06T15:05:48.393Z,3.40
2019-01-06T15:08:45.649Z,3.40
2019-01-06T15:11:32.769Z,3.30
2019-01-06T15:14:30.227Z,4.10
2019-01-06T15:17:18.680Z,4.40
2019-01-06T15:20:25.658Z,4.60
2019-01-06T15:23:09.189Z,4.80
2019-01-06T15:26:00.506Z,4.90
2019-01-06T15:28:47.828Z,4.70
2019-01-06T15:31:34.414Z,4.80
2019-01-06T15:34:21.860Z,5.40
2019-01-06T15:37:13.178Z,7.10
2019-01-06T15:40:00.292Z,6.80
2019-01-06T15:43:06.974Z,6.30
2019-01-06T15:45:55.388Z,6.20
2019-01-06T15:48:49.702Z,6.00
2019-01-06T15:51:44.572Z,5.80
2019-01-06T15:54:33.463Z,5.90
2019-01-06T15:57:25.402Z,5.70
2019-01-06T16:00:13.941Z,5.90
2019-01-06T16:03:14.984Z,5.90
2019-01-06T16:06:06.419Z,5.60
2019-01-06T16:09:02.430Z,5.40
2019-01-06T16:12:09.618Z,5.10
2019-01-06T16:15:04.109Z,4.90
2019-01-06T16:17:55.425Z,5.20
2019-01-06T16:20:44.185Z,5.20
2019-01-06T16:23:44.512Z,5.30
2019-01-06T16:26:33.379Z,5.50
2019-01-06T16:29:20.495Z,5.40
2019-01-06T16:32:14.889Z,6.60
2019-01-06T16:35:02.411Z,6.60
2019-01-06T16:37:57.106Z,6.20
2019-01-06T16:41:03.782Z,5.80
2019-01-06T16:43:58.275Z,5.70
2019-01-06T16:46:53.377Z,5.60
2019-01-06T16:49:48.075Z,5.20
2019-01-06T16:52:29.346Z,4.90
2019-01-06T16:55:16.884Z,4.60
2019-01-06T16:58:04.708Z,4.50
2019-01-06T17:00:56.025Z,4.60
2019-01-06T17:03:42.527Z,4.60
2019-01-06T17:06:36.712Z,4.50
2019-01-06T17:09:24.954Z,4.60
2019-01-06T17:12:12.178Z,4.60
2019-01-06T17:15:07.073Z,4.60
2019-01-06T17:18:07.708Z,5.10
2019-01-06T17:20:59.126Z,5.30
2019-01-06T17:23:46.551Z,5.10
2019-01-06T17:26:50.160Z,5.10
2019-01-06T17:29:37.786Z,4.80
2019-01-06T17:32:28.386Z,4.70
2019-01-06T17:35:15.993Z,4.30
2019-01-06T17:38:14.883Z,4.00
2019-01-06T17:41:18.718Z,3.80
2019-01-06T17:44:25.389Z,3.70
2019-01-06T17:47:13.942Z,3.90
2019-01-06T17:50:01.170Z,3.70
2019-01-06T17:52:48.689Z,3.60
2019-01-06T17:55:39.162Z,3.30
2019-01-06T17:58:29.554Z,3.50
2019-01-06T18:01:18.033Z,3.90
2019-01-06T18:04:20.405Z,4.30
2019-01-06T18:07:24.316Z,4.50
2019-01-06T18:10:22.328Z,5.00
2019-01-06T18:13:16.880Z,5.00
2019-01-06T18:16:22.886Z,4.80
2019-01-06T18:19:19.789Z,4.70
2019-01-06T18:22:08.236Z,4.70
2019-01-06T18:24:59.655Z,4.60
2019-01-06T18:27:50.969Z,4.20
2019-01-06T18:30:51.810Z,4.00
2019-01-06T18:33:43.204Z,4.20
2019-01-06T18:36:31.675Z,4.30
2019-01-06T18:39:32.417Z,4.00
2019-01-06T18:42:20.863Z,3.90
2019-01-06T18:45:09.203Z,4.00
2019-01-06T18:48:03.780Z,4.40
2019-01-06T18:51:07.712Z,4.60
2019-01-06T18:53:54.829Z,5.10
2019-01-06T18:56:43.600Z,5.40
2019-01-06T18:59:26.709Z,5.60
2019-01-06T19:02:13.829Z,6.00
2019-01-06T19:05:14.461Z,6.10
2019-01-06T19:08:09.363Z,6.20
2019-01-06T19:10:56.690Z,6.10
2019-01-06T19:13:54.663Z,5.90
2019-01-06T19:16:49.052Z,5.80
2019-01-06T19:19:46.409Z,6.00
2019-01-06T19:22:47.547Z,6.00
2019-01-06T19:25:34.769Z,5.90
2019-01-06T19:28:25.443Z,5.70
2019-01-06T19:31:20.777Z,5.60
2019-01-06T19:34:09.328Z,5.20
2019-01-06T19:36:56.963Z,4.80
2019-01-06T19:40:00.563Z,4.70
2019-01-06T19:42:47.681Z,4.60
2019-01-06T19:45:39.306Z,4.50
2019-01-06T19:48:26.933Z,4.50
2019-01-06T19:51:14.340Z,4.60
2019-01-06T19:54:06.083Z,4.30
2019-01-06T19:56:58.418Z,4.50
2019-01-06T19:59:46.974Z,4.70
2019-01-06T20:02:50.886Z,4.90
2019-01-06T20:05:38.310Z,5.00
2019-01-06T20:08:26.861Z,4.90
2019-01-06T20:11:17.629Z,4.80
2019-01-06T20:13:58.536Z,5.10
2019-01-06T20:16:47.192Z,5.20
2019-01-06T20:19:41.680Z,5.50
2019-01-06T20:22:42.416Z,5.50
2019-01-06T20:25:38.448Z,5.10
2019-01-06T20:28:39.182Z,5.10
2019-01-06T20:31:21.590Z,5.10
2019-01-06T20:34:09.222Z,5.00
2019-01-06T20:37:03.816Z,4.80
2019-01-06T20:40:11.105Z,5.30
2019-01-06T20:42:58.226Z,5.70
2019-01-06T20:45:46.879Z,5.80
2019-01-06T20:48:45.151Z,5.60
2019-01-06T20:51:46.202Z,5.70
2019-01-06T20:54:47.248Z,5.60
2019-01-06T20:57:51.363Z,5.50
2019-01-06T21:00:48.590Z,5.30
2019-01-06T21:03:38.700Z,5.40
2019-01-06T21:06:36.159Z,5.10
2019-01-06T21:09:36.590Z,5.00
2019-01-06T21:12:27.675Z,4.80
2019-01-06T21:15:16.389Z,5.10
2019-01-06T21:18:14.327Z,5.40
2019-01-06T21:21:09.737Z,5.10
2019-01-06T21:23:57.571Z,5.10
2019-01-06T21:26:44.587Z,5.50
2019-01-06T21:29:24.947Z,5.70
2019-01-06T21:32:12.370Z,5.40
2019-01-06T21:34:59.692Z,5.50
2019-01-06T21:37:51.419Z,6.00
2019-01-06T21:40:48.776Z,6.00
2019-01-06T21:43:36.405Z,6.20
2019-01-06T21:46:31.388Z,6.10
2019-01-06T21:49:19.142Z,6.10
2019-01-06T21:52:26.326Z,6.00
2019-01-06T21:55:23.569Z,5.90
2019-01-06T21:58:20.634Z,6.10
2019-01-06T22:01:12.362Z,5.90
2019-01-06T22:03:54.048Z,5.90
2019-01-06T22:06:42.138Z,5.60
2019-01-06T22:09:36.578Z,5.50
2019-01-06T22:12:34.461Z,5.50
2019-01-06T22:15:29.248Z,5.00
2019-01-06T22:18:23.715Z,4.90
2019-01-06T22:21:11.159Z,4.80
2019-01-06T22:23:59.896Z,4.90
2019-01-06T22:26:47.133Z,4.70
2019-01-06T22:29:51.150Z,4.80
2019-01-06T22:32:42.675Z,4.60
2019-01-06T22:35:29.686Z,4.80
2019-01-06T22:38:27.259Z,5.00
2019-01-06T22:41:35.367Z,4.90
2019-01-06T22:44:39.269Z,4.50
2019-01-06T22:47:26.488Z,4.50
2019-01-06T22:50:18.009Z,4.80
2019-01-06T22:53:18.749Z,4.80
2019-01-06T22:56:21.916Z,4.60
2019-01-06T22:59:16.330Z,5.00
2019-01-06T23:02:11.433Z,5.40
2019-01-06T23:05:02.828Z,5.80
2019-01-06T23:07:50.175Z,6.00
2019-01-06T23:10:48.311Z,6.00
2019-01-06T23:13:46.229Z,5.60
2019-01-06T23:16:36.976Z,5.20
2019-01-06T23:19:32.544Z,5.10
2019-01-06T23:22:21.092Z,5.40
2019-01-06T23:25:08.522Z,5.30
2019-01-06T23:27:56.355Z,5.00
2019-01-06T23:30:44.080Z,4.60
2019-01-06T23:33:32.740Z,4.80
2019-01-06T23:36:30.296Z,5.00
2019-01-06T23:39:15.367Z,5.00
2019-01-06T23:42:17.028Z,5.40
2019-01-06T23:45:08.649Z,5.40
2019-01-06T23:48:09.491Z,5.30
2019-01-06T23:51:21.368Z,5.00
2019-01-06T23:54:08.609Z,5.30
2019-01-06T23:56:57.159Z,5.40
2019-01-06T23:59:44.486Z,4.70
